Nampa, ID

9:47 PM MST on December 20, 2014 (GMT -0700)
Ontario Municipal | Change Station
CLOSE
Current Station
Airport
Location: Ontario,
Elevation: 2192 ft
Nearby Weather Stations

Elev 2192 ft 44.02 °N, 117.01 °W | Updated 22 minutes ago

Rain
Rain
44 °F
Feels Like 39 °F
N
10
Wind Variable Wind from SSE

Today
High -- | Low -- °F
--% Chance of Precip.
Yesterday
High -- | Low -- °F
Precip. -- in
8:15 AM 5:12 PM
Waning Crescent, 1% visible
Pressure 29.89 in
Visibility 7.0 miles
Clouds Few 900 ft
Overcast 3700 ft
Windchill 39 °F
Dew Point 41 °F
Humidity 89%
Rainfall 0.57 in
Snow Depth Not available.
UV 0 out of 12
Pollen .10 out of 12
Air Quality Not available.
Flu Activity Not available.
SPECI KONO 210425Z AUTO 15009KT 7SM -RA FEW009 OVC037 07/05 A2989 RMK AO2 P0005 T00670050

More Conditions Fewer Conditions

Pressure 29.89 in
Visibility 7.0 miles
Clouds Few 900 ft
Overcast 3700 ft
Windchill 39 °F
Dew Point 41 °F
Humidity 89%
Rainfall 0.57 in
Snow Depth Not available.
UV 0 out of 12
Pollen .10 out of 12
Air Quality Not available.
Flu Activity Not available.
SPECI KONO 210425Z AUTO 15009KT 7SM -RA FEW009 OVC037 07/05 A2989 RMK AO2 P0005 T00670050

More Conditions Fewer Conditions

10-Day Weather Forecast

Almanac

Astronomy

Dec. 20, 2014 Rise Set
Actual Time
Civil Twilight
Nautical Twilight
Astronomical Twilight
Moon
Length of Visible Light
Length of Day
Tomorrow will be .
, % of the Moon is Illuminated

Today's Extremes

State Highs State Lows

Community

WunderPhotos

Upload Photos

1,779,358 photos uploaded!

WunderBlogs® & News

Nearby

Air Quality

  Air Quality AQ Index Pollutant
Not available.

Snow Depth

Station Depth Elevation

Earthquake Activity

City Distance Mag. Time & Date
Minimum magnitude displayed is 2.5.

Coastal Water Temperatures

Place Temperature

Nearby Weather Stations